Time;durP1;ratioP1;P1;durP2;ratioP2;P2;SDS_P1;SDS_P2;PMS_P1;PMS_P2;Temp;Humidity;BMP_temperature;BMP_pressure;BME280_temperature;BME280_humidity;BME280_pressure;Samples;Min_cycle;Max_cycle;Signal;HPM_P1;HPM_P2
2022/12/10 00:00:52;;;;;;;67.78;26.95;;;;;;;;;;5050718;28;20036;-56
2022/12/10 00:03:17;;;;;;;63.85;26.20;;;;;;;;;;5054528;28;20036;-55
2022/12/10 00:05:42;;;;;;;58.55;26.23;;;;;;;;;;5071186;28;20020;-53
2022/12/10 00:08:08;;;;;;;61.92;27.00;;;;;;;;;;5072215;28;20097;-54
2022/12/10 00:10:33;;;;;;;59.08;25.67;;;;;;;;;;5071864;28;20043;-56
2022/12/10 00:12:59;;;;;;;65.78;26.60;;;;;;;;;;5069341;28;20063;-54
2022/12/10 00:15:24;;;;;;;78.00;29.17;;;;;;;;;;5054263;28;20043;-57
2022/12/10 00:17:49;;;;;;;72.57;27.77;;;;;;;;;;5057817;28;20057;-54
2022/12/10 00:20:15;;;;;;;59.85;26.55;;;;;;;;;;5070861;28;20024;-52
2022/12/10 00:22:40;;;;;;;70.32;27.30;;;;;;;;;;5069517;28;20074;-57
2022/12/10 00:25:06;;;;;;;62.60;25.83;;;;;;;;;;5070121;28;20040;-56
2022/12/10 00:27:31;;;;;;;63.40;25.98;;;;;;;;;;5070783;28;20107;-57
2022/12/10 00:29:57;;;;;;;64.75;26.48;;;;;;;;;;5070791;28;20093;-56
2022/12/10 00:32:22;;;;;;;60.53;23.45;;;;;;;;;;5052469;28;20194;-56
2022/12/10 00:34:47;;;;;;;69.20;27.05;;;;;;;;;;5051883;28;20044;-56
2022/12/10 00:37:13;;;;;;;72.47;26.25;;;;;;;;;;5067976;28;20056;-53
2022/12/10 00:39:38;;;;;;;62.42;26.50;;;;;;;;;;5056767;28;20032;-59
2022/12/10 00:42:04;;;;;;;61.38;25.02;;;;;;;;;;5069209;28;20385;-54
2022/12/10 00:44:29;;;;;;;56.00;24.95;;;;;;;;;;5067210;28;20024;-58
2022/12/10 00:46:54;;;;;;;67.55;26.10;;;;;;;;;;5066854;28;20167;-58
2022/12/10 00:49:22;;;;;;;59.42;25.95;;;;;;;;;;5060580;28;20032;-56
2022/12/10 00:51:48;;;;;;;64.18;26.15;;;;;;;;;;5067304;28;20032;-56
2022/12/10 00:54:14;;;;;;;63.50;25.20;;;;;;;;;;5052355;28;20393;-56
2022/12/10 00:56:40;;;;;;;61.33;23.98;;;;;;;;;;5052346;28;20103;-58
2022/12/10 00:59:06;;;;;;;59.13;23.92;;;;;;;;;;5068651;28;20380;-57
2022/12/10 01:01:38;;;;;;;55.75;23.45;;;;;;;;;;5071251;28;20078;-58
2022/12/10 01:04:09;;;;;;;58.55;23.60;;;;;;;;;;5067003;28;20033;-58
2022/12/10 01:06:49;;;;;;;50.30;22.77;;;;;;;;;;5070669;28;20102;-57
2022/12/10 01:09:23;;;;;;;59.67;24.95;;;;;;;;;;5068749;28;20060;-55
2022/12/10 01:11:50;;;;;;;62.60;23.92;;;;;;;;;;5050848;28;20074;-57
2022/12/10 01:14:19;;;;;;;60.95;24.67;;;;;;;;;;5070605;28;20087;-57
2022/12/10 01:16:45;;;;;;;61.83;24.35;;;;;;;;;;5065496;28;20033;-57
2022/12/10 01:19:11;;;;;;;59.00;23.98;;;;;;;;;;5054013;28;20406;-54
2022/12/10 01:21:37;;;;;;;59.40;23.50;;;;;;;;;;5066689;28;20032;-55
2022/12/10 01:24:03;;;;;;;60.28;24.85;;;;;;;;;;5065236;28;20029;-56
2022/12/10 01:26:31;;;;;;;62.55;26.15;;;;;;;;;;5071040;28;20040;-53
2022/12/10 01:28:56;;;;;;;68.47;25.70;;;;;;;;;;5058000;28;20089;-58
2022/12/10 01:31:25;;;;;;;68.00;25.98;;;;;;;;;;5067914;28;20028;-58
2022/12/10 01:33:50;;;;;;;63.53;26.42;;;;;;;;;;5067174;28;20103;-57
2022/12/10 01:36:28;;;;;;;61.15;24.13;;;;;;;;;;5070418;28;20124;-57
2022/12/10 01:38:54;;;;;;;64.50;25.90;;;;;;;;;;5067718;28;20028;-56
2022/12/10 01:41:25;;;;;;;63.60;25.80;;;;;;;;;;5069837;28;20093;-56
2022/12/10 01:44:09;;;;;;;70.68;26.50;;;;;;;;;;5068419;28;20024;-58
2022/12/10 01:46:45;;;;;;;65.80;24.95;;;;;;;;;;5069179;28;20036;-55
2022/12/10 01:49:13;;;;;;;69.65;26.38;;;;;;;;;;5070594;28;20024;-56
2022/12/10 01:51:41;;;;;;;57.85;25.00;;;;;;;;;;5069184;28;20107;-59
2022/12/10 01:54:13;;;;;;;67.78;25.33;;;;;;;;;;5068904;28;20092;-56
2022/12/10 01:56:43;;;;;;;61.63;25.35;;;;;;;;;;5068239;28;20201;-58
2022/12/10 01:59:10;;;;;;;57.15;24.70;;;;;;;;;;5071142;28;20024;-57
2022/12/10 02:02:04;;;;;;;57.30;24.30;;;;;;;;;;5069723;28;20052;-56
2022/12/10 02:04:50;;;;;;;55.53;23.77;;;;;;;;;;5065740;28;20024;-58
2022/12/10 02:07:42;;;;;;;57.22;24.90;;;;;;;;;;5064857;28;20024;-56
2022/12/10 02:10:31;;;;;;;58.05;24.67;;;;;;;;;;5067867;28;20046;-58
2022/12/10 02:13:09;;;;;;;55.88;24.52;;;;;;;;;;5049568;28;20039;-57
2022/12/10 02:15:42;;;;;;;63.25;24.75;;;;;;;;;;5051181;28;20064;-56
2022/12/10 02:18:12;;;;;;;59.22;24.27;;;;;;;;;;5061796;28;20461;-55
2022/12/10 02:20:49;;;;;;;58.75;25.23;;;;;;;;;;5070346;28;20064;-57
2022/12/10 02:23:23;;;;;;;58.58;25.25;;;;;;;;;;5069469;28;20040;-56
2022/12/10 02:26:18;;;;;;;71.57;26.15;;;;;;;;;;5053225;28;20397;-57
2022/12/10 02:29:05;;;;;;;62.00;25.02;;;;;;;;;;5050614;28;20135;-59
2022/12/10 02:31:32;;;;;;;62.33;25.73;;;;;;;;;;5050527;28;20033;-58
2022/12/10 02:34:01;;;;;;;63.88;24.85;;;;;;;;;;5069871;28;20115;-58
2022/12/10 02:36:30;;;;;;;61.60;25.77;;;;;;;;;;5073281;28;20052;-57
2022/12/10 02:38:56;;;;;;;70.88;26.65;;;;;;;;;;5074219;28;20107;-57
2022/12/10 02:41:28;;;;;;;61.47;26.42;;;;;;;;;;5068166;28;20033;-57
2022/12/10 02:43:57;;;;;;;62.00;25.40;;;;;;;;;;5059309;28;20036;-57
2022/12/10 02:46:25;;;;;;;58.63;25.90;;;;;;;;;;5073301;28;20155;-58
2022/12/10 02:48:51;;;;;;;59.75;24.85;;;;;;;;;;5073177;28;20032;-53
2022/12/10 02:51:17;;;;;;;66.07;25.17;;;;;;;;;;5055638;28;20036;-55
2022/12/10 02:53:44;;;;;;;59.20;25.52;;;;;;;;;;5072602;28;20426;-57
2022/12/10 02:56:33;;;;;;;63.25;25.73;;;;;;;;;;5058135;28;20040;-53
2022/12/10 02:59:24;;;;;;;59.33;25.13;;;;;;;;;;5069952;28;20039;-56
2022/12/10 03:02:06;;;;;;;;;;;;;;;;;;5072187;28;20037;-56
2022/12/10 03:04:52;;;;;;;54.05;23.30;;;;;;;;;;5071650;28;19916;-57
2022/12/10 03:07:27;;;;;;;61.53;24.48;;;;;;;;;;5061068;28;20043;-56
2022/12/10 03:10:00;;;;;;;58.75;25.17;;;;;;;;;;5073242;28;20024;-55
2022/12/10 03:12:31;;;;;;;57.55;26.05;;;;;;;;;;5054657;28;20035;-56
2022/12/10 03:15:04;;;;;;;65.45;25.88;;;;;;;;;;5073975;28;20025;-56
2022/12/10 03:17:31;;;;;;;66.45;26.13;;;;;;;;;;5071534;28;20152;-53
2022/12/10 03:19:58;;;;;;;55.00;25.17;;;;;;;;;;5071940;28;20108;-55
2022/12/10 03:22:24;;;;;;;56.50;26.20;;;;;;;;;;5072587;28;20029;-55
2022/12/10 03:24:51;;;;;;;60.03;25.50;;;;;;;;;;5070152;28;20036;-59
2022/12/10 03:27:20;;;;;;;58.15;25.63;;;;;;;;;;5074219;28;20055;-55
2022/12/10 03:29:49;;;;;;;56.13;26.00;;;;;;;;;;5066249;28;20126;-55
2022/12/10 03:32:16;;;;;;;58.80;25.88;;;;;;;;;;5071179;28;20033;-59
2022/12/10 03:34:43;;;;;;;59.85;25.95;;;;;;;;;;5056609;28;20036;-54
2022/12/10 03:37:09;;;;;;;57.92;24.88;;;;;;;;;;5071754;28;20036;-57
2022/12/10 03:39:34;;;;;;;59.88;25.65;;;;;;;;;;5052579;28;20129;-56
2022/12/10 03:42:00;;;;;;;57.60;25.20;;;;;;;;;;5071835;28;20112;-57
2022/12/10 03:44:30;;;;;;;55.78;25.15;;;;;;;;;;5072105;28;20029;-58
2022/12/10 03:46:55;;;;;;;56.92;25.70;;;;;;;;;;5071119;28;20051;-58
2022/12/10 03:49:20;;;;;;;58.85;25.88;;;;;;;;;;5065003;28;20058;-55
2022/12/10 03:51:46;;;;;;;51.97;25.40;;;;;;;;;;5046660;28;20055;-58
2022/12/10 03:54:11;;;;;;;55.95;25.23;;;;;;;;;;5068700;28;20059;-56
2022/12/10 03:56:37;;;;;;;57.10;25.77;;;;;;;;;;5071674;28;20051;-55
2022/12/10 03:59:03;;;;;;;52.38;23.67;;;;;;;;;;5053788;28;20052;-56
2022/12/10 04:01:28;;;;;;;57.55;25.73;;;;;;;;;;5072462;28;20102;-57
2022/12/10 04:03:54;;;;;;;51.72;24.88;;;;;;;;;;5072135;28;20059;-55
2022/12/10 04:06:19;;;;;;;55.53;25.38;;;;;;;;;;5064047;28;20052;-54
2022/12/10 04:08:46;;;;;;;56.58;25.15;;;;;;;;;;5071766;28;20036;-56
2022/12/10 04:11:12;;;;;;;54.13;25.25;;;;;;;;;;5070512;28;20043;-53
2022/12/10 04:16:26;;;;;;;46.00;23.15;;;;;;;;;;5068408;28;20140;-55
2022/12/10 04:18:52;;;;;;;46.33;23.58;;;;;;;;;;5071734;28;20058;-59
2022/12/10 04:26:55;;;;;;;45.20;22.00;;;;;;;;;;5055378;28;20035;-57
2022/12/10 04:29:27;;;;;;;49.97;22.75;;;;;;;;;;5070897;28;20052;-54
2022/12/10 04:31:54;;;;;;;49.30;23.02;;;;;;;;;;5067958;28;20021;-59
2022/12/10 04:34:20;;;;;;;49.67;22.55;;;;;;;;;;5057811;28;20063;-56
2022/12/10 04:36:46;;;;;;;44.28;22.38;;;;;;;;;;5067146;28;20060;-56
2022/12/10 04:39:13;;;;;;;46.30;22.15;;;;;;;;;;5071449;28;20020;-57
2022/12/10 04:41:40;;;;;;;46.03;21.85;;;;;;;;;;5052777;28;20388;-59
2022/12/10 04:44:06;;;;;;;45.40;21.90;;;;;;;;;;5070818;28;20064;-57
2022/12/10 04:46:31;;;;;;;45.60;20.55;;;;;;;;;;5070700;28;20052;-61
2022/12/10 04:48:57;;;;;;;50.75;23.20;;;;;;;;;;5052231;28;20444;-56
2022/12/10 04:51:22;;;;;;;50.25;22.77;;;;;;;;;;5069770;28;20479;-55
2022/12/10 04:53:48;;;;;;;50.50;22.77;;;;;;;;;;5070039;28;20054;-57
2022/12/10 04:56:13;;;;;;;53.33;23.02;;;;;;;;;;5068584;28;20600;-54
2022/12/10 04:58:38;;;;;;;45.60;20.77;;;;;;;;;;5052220;28;20024;-54
2022/12/10 05:01:06;;;;;;;46.78;23.30;;;;;;;;;;5049288;28;20123;-57
2022/12/10 05:03:31;;;;;;;47.60;22.17;;;;;;;;;;5063913;28;20047;-53
2022/12/10 05:06:02;;;;;;;49.65;22.80;;;;;;;;;;5051868;28;20480;-53
2022/12/10 05:08:27;;;;;;;47.75;21.95;;;;;;;;;;5067733;28;20107;-57
2022/12/10 05:10:52;;;;;;;50.05;22.08;;;;;;;;;;5069712;28;20520;-58
2022/12/10 05:13:18;;;;;;;48.88;23.23;;;;;;;;;;5068855;28;20381;-54
2022/12/10 05:15:43;;;;;;;45.00;21.25;;;;;;;;;;5071074;28;20043;-56
2022/12/10 05:18:08;;;;;;;50.40;22.38;;;;;;;;;;5062275;28;20067;-57
2022/12/10 05:20:34;;;;;;;47.28;21.63;;;;;;;;;;5071391;28;20479;-56
2022/12/10 05:25:55;;;;;;;52.88;22.58;;;;;;;;;;5071441;28;20393;-53
2022/12/10 05:28:21;;;;;;;54.20;23.15;;;;;;;;;;5069395;28;20527;-57
2022/12/10 05:30:47;;;;;;;53.92;23.30;;;;;;;;;;5070000;28;20040;-55
2022/12/10 05:33:13;;;;;;;55.65;23.23;;;;;;;;;;5069469;28;20078;-57
2022/12/10 05:35:38;;;;;;;56.70;23.27;;;;;;;;;;5071069;28;20043;-58
2022/12/10 05:38:05;;;;;;;51.97;22.65;;;;;;;;;;5066800;28;20432;-52
2022/12/10 05:40:33;;;;;;;49.33;22.63;;;;;;;;;;5070306;28;20046;-58
2022/12/10 05:42:58;;;;;;;52.10;22.60;;;;;;;;;;5068283;28;20389;-58
2022/12/10 05:45:24;;;;;;;55.08;23.75;;;;;;;;;;5057836;28;20059;-57
2022/12/10 05:47:49;;;;;;;52.33;23.15;;;;;;;;;;5068237;28;20423;-60
2022/12/10 05:50:15;;;;;;;53.13;23.20;;;;;;;;;;5070019;28;20630;-57
2022/12/10 05:52:40;;;;;;;53.55;22.38;;;;;;;;;;5071029;28;20035;-58
2022/12/10 05:55:05;;;;;;;51.40;22.08;;;;;;;;;;5069116;28;20078;-57
2022/12/10 05:57:31;;;;;;;48.83;21.45;;;;;;;;;;5071494;28;20444;-59
2022/12/10 05:59:56;;;;;;;44.42;20.00;;;;;;;;;;5071316;28;20024;-57
2022/12/10 06:02:22;;;;;;;44.50;20.25;;;;;;;;;;5067317;28;20154;-60
2022/12/10 06:04:47;;;;;;;44.08;20.75;;;;;;;;;;5070396;28;20140;-57
2022/12/10 06:07:12;;;;;;;45.45;20.35;;;;;;;;;;5066960;28;20472;-56
2022/12/10 06:09:38;;;;;;;46.50;20.70;;;;;;;;;;5071296;28;20036;-55
2022/12/10 06:12:03;;;;;;;43.47;20.58;;;;;;;;;;5076613;28;20025;-55
2022/12/10 06:14:29;;;;;;;44.53;20.42;;;;;;;;;;5076514;28;20111;-55
2022/12/10 06:16:54;;;;;;;42.60;19.63;;;;;;;;;;5076924;28;20141;-57
2022/12/10 06:19:19;;;;;;;48.33;21.48;;;;;;;;;;5071090;28;20029;-57
2022/12/10 06:21:45;;;;;;;43.47;19.75;;;;;;;;;;5077525;28;20504;-59
2022/12/10 06:24:10;;;;;;;43.13;19.50;;;;;;;;;;5075098;28;20473;-57
2022/12/10 06:26:36;;;;;;;46.13;19.90;;;;;;;;;;5077144;28;20042;-55
2022/12/10 06:29:01;;;;;;;41.28;19.88;;;;;;;;;;5075484;28;20388;-59
2022/12/10 06:31:27;;;;;;;41.38;19.08;;;;;;;;;;5058258;28;20028;-58
2022/12/10 06:33:53;;;;;;;38.25;19.38;;;;;;;;;;5075260;28;20483;-57
2022/12/10 06:36:19;;;;;;;42.03;19.63;;;;;;;;;;5073361;28;20055;-56
2022/12/10 06:38:45;;;;;;;41.33;19.13;;;;;;;;;;5076638;28;20396;-54
2022/12/10 06:41:13;;;;;;;42.13;19.73;;;;;;;;;;5072806;28;20055;-56
2022/12/10 06:43:39;;;;;;;41.15;19.70;;;;;;;;;;5058993;28;20485;-57
2022/12/10 06:46:06;;;;;;;41.63;18.95;;;;;;;;;;5074586;28;20088;-57
2022/12/10 06:48:32;;;;;;;45.85;19.95;;;;;;;;;;5076017;28;20040;-59
2022/12/10 06:50:58;;;;;;;38.58;17.92;;;;;;;;;;5074707;28;20044;-59
2022/12/10 06:53:23;;;;;;;44.85;19.30;;;;;;;;;;5074716;28;20964;-58
2022/12/10 06:55:49;;;;;;;40.63;19.25;;;;;;;;;;5075646;28;20401;-59
2022/12/10 06:58:14;;;;;;;41.58;19.42;;;;;;;;;;5075272;28;20033;-59
2022/12/10 07:00:39;;;;;;;39.53;19.10;;;;;;;;;;5075481;28;20040;-58
2022/12/10 07:03:05;;;;;;;41.80;18.65;;;;;;;;;;5073619;28;20039;-61
2022/12/10 07:05:30;;;;;;;39.67;19.02;;;;;;;;;;5057122;28;20043;-59
2022/12/10 07:07:55;;;;;;;41.47;19.42;;;;;;;;;;5073156;28;20510;-57
2022/12/10 07:10:21;;;;;;;42.95;19.20;;;;;;;;;;5072561;28;20028;-58
2022/12/10 07:12:47;;;;;;;42.55;18.95;;;;;;;;;;5074726;28;20036;-59
2022/12/10 07:15:12;;;;;;;41.10;19.38;;;;;;;;;;5075034;28;20025;-61
2022/12/10 07:17:37;;;;;;;45.00;20.17;;;;;;;;;;5086274;28;20036;-53
2022/12/10 07:20:03;;;;;;;48.85;21.73;;;;;;;;;;5075951;28;20119;-57
2022/12/10 07:22:29;;;;;;;43.25;20.25;;;;;;;;;;5072839;28;20473;-56
2022/12/10 07:24:54;;;;;;;52.90;22.48;;;;;;;;;;5074442;28;20037;-62
2022/12/10 07:27:20;;;;;;;50.08;22.23;;;;;;;;;;5072778;28;20033;-57
2022/12/10 07:29:45;;;;;;;59.38;24.45;;;;;;;;;;5073856;28;20447;-56
2022/12/10 07:32:11;;;;;;;52.60;24.30;;;;;;;;;;5072523;28;20040;-57
2022/12/10 07:34:36;;;;;;;52.97;23.33;;;;;;;;;;5073846;28;20520;-58
2022/12/10 07:37:02;;;;;;;51.90;23.60;;;;;;;;;;5072183;28;20041;-58
2022/12/10 07:39:27;;;;;;;58.35;25.48;;;;;;;;;;5074024;28;20031;-53
2022/12/10 07:41:53;;;;;;;63.50;25.88;;;;;;;;;;5073225;28;20039;-55
2022/12/10 07:44:20;;;;;;;67.15;26.52;;;;;;;;;;5055452;28;20021;-58
2022/12/10 07:46:47;;;;;;;65.63;28.42;;;;;;;;;;5072772;28;20469;-59
2022/12/10 07:49:13;;;;;;;60.85;26.63;;;;;;;;;;5065449;28;20378;-58
2022/12/10 07:51:38;;;;;;;60.45;27.33;;;;;;;;;;5054930;28;20029;-57
2022/12/10 07:54:04;;;;;;;66.95;28.88;;;;;;;;;;5084865;28;20032;-59
2022/12/10 07:56:29;;;;;;;62.40;26.42;;;;;;;;;;5072202;28;20056;-57
2022/12/10 07:58:55;;;;;;;60.17;25.52;;;;;;;;;;5073801;28;20389;-57
2022/12/10 08:01:23;;;;;;;63.67;25.65;;;;;;;;;;5037835;28;20124;-57
2022/12/10 08:03:49;;;;;;;56.90;23.90;;;;;;;;;;5055707;28;20385;-59
2022/12/10 08:06:18;;;;;;;65.40;26.20;;;;;;;;;;5070581;28;20036;-56
2022/12/10 08:08:45;;;;;;;57.90;22.85;;;;;;;;;;5054918;28;20416;-58
2022/12/10 08:11:11;;;;;;;68.80;25.60;;;;;;;;;;5071243;28;20445;-58
2022/12/10 08:13:38;;;;;;;68.32;22.48;;;;;;;;;;5073301;28;20059;-57
2022/12/10 08:16:10;;;;;;;80.22;25.10;;;;;;;;;;5047092;28;20032;-60
2022/12/10 08:18:36;;;;;;;75.03;27.20;;;;;;;;;;5073205;28;20041;-58
2022/12/10 08:21:06;;;;;;;81.55;26.92;;;;;;;;;;5072253;28;20082;-59
2022/12/10 08:23:31;;;;;;;85.93;26.77;;;;;;;;;;5072365;28;20460;-56
2022/12/10 08:25:56;;;;;;;74.85;26.25;;;;;;;;;;5071621;28;20031;-57
2022/12/10 08:28:22;;;;;;;87.78;25.77;;;;;;;;;;5072124;28;20074;-56
2022/12/10 08:30:49;;;;;;;87.03;26.27;;;;;;;;;;5053975;28;20491;-58
2022/12/10 08:33:14;;;;;;;102.32;26.63;;;;;;;;;;5071821;28;20135;-58
2022/12/10 08:35:40;;;;;;;112.97;27.67;;;;;;;;;;5074669;28;20033;-59
2022/12/10 08:38:05;;;;;;;119.90;25.42;;;;;;;;;;5072835;28;20461;-58
2022/12/10 08:40:31;;;;;;;107.40;23.30;;;;;;;;;;5071249;28;20032;-57
2022/12/10 08:42:56;;;;;;;79.43;20.08;;;;;;;;;;5055052;28;20032;-58
2022/12/10 08:45:22;;;;;;;114.68;27.98;;;;;;;;;;5056969;28;20032;-60
2022/12/10 08:47:47;;;;;;;99.28;27.00;;;;;;;;;;5060144;28;20127;-59
2022/12/10 08:50:13;;;;;;;96.63;26.85;;;;;;;;;;5071773;28;20032;-58
2022/12/10 08:52:38;;;;;;;121.47;29.40;;;;;;;;;;5054348;28;20027;-58
2022/12/10 08:55:04;;;;;;;132.93;30.58;;;;;;;;;;5072575;28;20028;-56
2022/12/10 08:57:29;;;;;;;118.47;29.95;;;;;;;;;;5071069;28;20278;-56
2022/12/10 08:59:55;;;;;;;133.55;31.23;;;;;;;;;;5053585;28;20086;-58
2022/12/10 09:02:20;;;;;;;122.18;29.90;;;;;;;;;;5070798;28;20032;-60
2022/12/10 09:04:46;;;;;;;109.75;27.67;;;;;;;;;;5070656;28;20498;-58
2022/12/10 09:07:12;;;;;;;119.03;29.38;;;;;;;;;;5053826;28;20025;-59
2022/12/10 09:09:37;;;;;;;105.88;28.70;;;;;;;;;;5053771;28;20385;-58
2022/12/10 09:12:03;;;;;;;75.65;22.63;;;;;;;;;;5071767;28;20032;-57
2022/12/10 09:14:28;;;;;;;72.53;22.10;;;;;;;;;;5070262;28;20028;-58
2022/12/10 09:16:54;;;;;;;80.75;23.35;;;;;;;;;;5071600;28;20039;-56
2022/12/10 09:19:19;;;;;;;65.18;21.70;;;;;;;;;;5071141;28;20042;-56
2022/12/10 09:21:46;;;;;;;78.82;23.98;;;;;;;;;;5069978;28;20098;-58
2022/12/10 09:24:12;;;;;;;85.20;26.02;;;;;;;;;;5071312;28;20032;-59
2022/12/10 09:26:38;;;;;;;93.35;27.10;;;;;;;;;;5070441;28;20074;-56
2022/12/10 09:29:03;;;;;;;96.97;28.25;;;;;;;;;;5053840;28;20035;-57
2022/12/10 09:31:29;;;;;;;66.22;23.00;;;;;;;;;;5069640;28;20059;-58
2022/12/10 09:33:54;;;;;;;91.35;27.63;;;;;;;;;;5053403;28;20116;-58
2022/12/10 09:36:21;;;;;;;82.90;26.70;;;;;;;;;;5061994;28;20050;-55
2022/12/10 09:38:47;;;;;;;82.78;26.17;;;;;;;;;;5052457;28;20033;-57
2022/12/10 09:41:37;;;;;;;87.90;28.77;;;;;;;;;;5071074;28;20032;-60
2022/12/10 09:44:12;;;;;;;86.28;27.02;;;;;;;;;;5070863;28;20028;-60
2022/12/10 09:47:00;;;;;;;84.30;26.23;;;;;;;;;;5070446;28;20036;-58
2022/12/10 09:49:47;;;;;;;76.20;25.90;;;;;;;;;;5070414;28;20056;-59
2022/12/10 09:52:17;;;;;;;74.25;24.95;;;;;;;;;;5069541;28;20115;-60
2022/12/10 09:54:48;;;;;;;76.90;26.92;;;;;;;;;;5082236;28;20071;-57
2022/12/10 09:57:38;;;;;;;71.65;25.33;;;;;;;;;;5069400;28;20424;-57
2022/12/10 10:00:19;;;;;;;65.40;24.85;;;;;;;;;;5056706;28;20069;-59
2022/12/10 10:02:44;;;;;;;;;;;;;;;;;;5031889;28;20040;-57
2022/12/10 10:05:22;;;;;;;70.60;24.33;;;;;;;;;;5044640;28;19917;-60
2022/12/10 10:07:52;;;;;;;63.95;24.30;;;;;;;;;;5050118;28;20032;-58
2022/12/10 10:10:23;;;;;;;77.90;25.83;;;;;;;;;;5049481;28;20025;-56
2022/12/10 10:12:52;;;;;;;64.03;24.10;;;;;;;;;;5050792;28;20033;-57
2022/12/10 10:15:30;;;;;;;67.32;25.95;;;;;;;;;;5049379;28;20060;-58
2022/12/10 10:18:02;;;;;;;67.80;26.10;;;;;;;;;;5050040;28;20128;-55
2022/12/10 10:20:27;;;;;;;62.60;24.17;;;;;;;;;;5048583;28;20420;-58
2022/12/10 10:22:56;;;;;;;61.55;23.98;;;;;;;;;;5050661;28;20033;-57
2022/12/10 10:25:21;;;;;;;57.17;23.45;;;;;;;;;;5051753;28;20029;-55
2022/12/10 10:27:47;;;;;;;67.63;25.88;;;;;;;;;;5048992;28;20094;-58
2022/12/10 10:30:19;;;;;;;64.93;23.35;;;;;;;;;;5049520;28;20033;-60
2022/12/10 10:32:49;;;;;;;59.33;23.75;;;;;;;;;;5048938;28;20033;-58
2022/12/10 10:35:23;;;;;;;61.15;24.02;;;;;;;;;;5047896;28;20079;-61
2022/12/10 10:37:49;;;;;;;62.10;24.42;;;;;;;;;;5051477;28;20116;-58
2022/12/10 10:40:23;;;;;;;62.17;22.83;;;;;;;;;;5048871;28;20123;-59
2022/12/10 10:42:53;;;;;;;69.30;24.65;;;;;;;;;;5051596;28;20116;-54
2022/12/10 10:45:42;;;;;;;63.35;21.48;;;;;;;;;;5030766;28;20563;-57
2022/12/10 10:48:20;;;;;;;78.47;25.25;;;;;;;;;;5032066;28;20037;-57
2022/12/10 10:50:45;;;;;;;77.32;26.00;;;;;;;;;;5031489;28;20124;-54
2022/12/10 10:53:30;;;;;;;71.57;25.25;;;;;;;;;;5032999;28;20147;-58
2022/12/10 10:56:09;;;;;;;78.97;27.08;;;;;;;;;;5057790;28;20110;-57
2022/12/10 10:58:35;;;;;;;80.32;26.45;;;;;;;;;;5073856;28;20483;-57
2022/12/10 11:01:07;;;;;;;81.90;27.38;;;;;;;;;;5074022;28;20033;-58
2022/12/10 11:03:35;;;;;;;77.53;28.20;;;;;;;;;;5073569;28;20111;-57
2022/12/10 11:06:04;;;;;;;79.70;28.48;;;;;;;;;;5073977;28;20031;-57
2022/12/10 11:08:31;;;;;;;80.03;26.63;;;;;;;;;;5038576;28;20036;-59
2022/12/10 11:11:11;;;;;;;72.57;25.35;;;;;;;;;;5073098;28;20134;-59
2022/12/10 11:13:37;;;;;;;82.97;28.37;;;;;;;;;;5072352;28;20025;-59
2022/12/10 11:16:15;;;;;;;85.97;28.13;;;;;;;;;;5082567;28;20031;-59
2022/12/10 11:18:57;;;;;;;76.00;28.33;;;;;;;;;;5059189;28;20422;-58
2022/12/10 11:21:23;;;;;;;85.35;27.75;;;;;;;;;;5085337;28;20024;-58
2022/12/10 11:23:54;;;;;;;69.97;24.73;;;;;;;;;;5068485;28;20047;-60
2022/12/10 11:26:46;;;;;;;85.88;27.48;;;;;;;;;;5055561;28;20032;-57
2022/12/10 11:29:46;;;;;;;83.30;26.67;;;;;;;;;;5055855;28;20043;-59
2022/12/10 11:32:36;;;;;;;74.10;25.42;;;;;;;;;;5064532;28;20036;-58
2022/12/10 11:35:05;;;;;;;79.37;27.30;;;;;;;;;;5073873;28;20033;-58
2022/12/10 11:37:53;;;;;;;87.25;28.42;;;;;;;;;;5073184;28;20491;-59
2022/12/10 11:40:35;;;;;;;87.35;27.85;;;;;;;;;;5053473;28;20036;-61
2022/12/10 11:43:12;;;;;;;80.82;26.08;;;;;;;;;;5054241;28;20075;-59
2022/12/10 11:45:53;;;;;;;87.80;29.35;;;;;;;;;;5053110;28;20105;-57
2022/12/10 11:48:39;;;;;;;60.95;21.92;;;;;;;;;;5070885;28;20104;-60
2022/12/10 11:51:08;;;;;;;79.15;26.15;;;;;;;;;;5074153;28;20393;-58
2022/12/10 11:53:47;;;;;;;85.78;25.73;;;;;;;;;;5072785;28;20024;-58
2022/12/10 11:56:30;;;;;;;82.07;26.38;;;;;;;;;;5074011;28;20530;-57
2022/12/10 11:59:26;;;;;;;88.80;27.90;;;;;;;;;;5055731;28;20039;-58
2022/12/10 12:02:11;;;;;;;92.72;29.52;;;;;;;;;;5073840;28;20049;-59
2022/12/10 12:04:53;;;;;;;69.95;24.65;;;;;;;;;;5054788;28;20131;-57
2022/12/10 12:07:31;;;;;;;75.65;26.50;;;;;;;;;;5072761;28;20074;-61
2022/12/10 12:10:16;;;;;;;64.53;22.30;;;;;;;;;;5078531;28;20059;-58
2022/12/10 12:12:47;;;;;;;71.22;23.88;;;;;;;;;;5079075;28;20124;-59
2022/12/10 12:15:12;;;;;;;;;;;;;;;;;;5072444;28;20032;-58
2022/12/10 12:17:43;;;;;;;49.20;17.67;;;;;;;;;;5072159;28;19935;-59
2022/12/10 12:20:17;;;;;;;;;;;;;;;;;;5072903;28;20033;-57
2022/12/10 12:22:48;;;;;;;76.35;24.33;;;;;;;;;;5070632;28;20015;-57
2022/12/10 12:25:26;;;;;;;64.25;23.13;;;;;;;;;;5063480;28;20281;-59
2022/12/10 12:28:13;;;;;;;62.40;23.00;;;;;;;;;;5072333;28;20082;-57
2022/12/10 12:30:44;;;;;;;79.50;24.40;;;;;;;;;;5071087;28;20043;-56
2022/12/10 12:33:23;;;;;;;66.88;23.65;;;;;;;;;;5069509;28;20032;-59
2022/12/10 12:36:15;;;;;;;63.00;22.50;;;;;;;;;;5071991;28;20037;-56
2022/12/10 12:38:52;;;;;;;60.38;21.55;;;;;;;;;;5049374;28;20255;-58
2022/12/10 12:41:47;;;;;;;57.40;20.90;;;;;;;;;;5065477;28;20114;-59
2022/12/10 12:44:21;;;;;;;62.90;22.73;;;;;;;;;;5053760;28;20094;-57
2022/12/10 12:46:48;;;;;;;63.05;22.75;;;;;;;;;;5071019;28;20064;-58
2022/12/10 12:49:22;;;;;;;57.50;21.52;;;;;;;;;;5071854;28;20043;-58
2022/12/10 12:52:05;;;;;;;51.65;18.60;;;;;;;;;;5071136;28;20040;-59
2022/12/10 12:54:33;;;;;;;60.83;21.40;;;;;;;;;;5071660;28;20060;-59
2022/12/10 12:57:19;;;;;;;59.67;22.10;;;;;;;;;;5071507;28;20044;-59
2022/12/10 13:00:09;;;;;;;61.83;22.48;;;;;;;;;;5070160;28;20044;-57
2022/12/10 13:03:07;;;;;;;53.92;20.42;;;;;;;;;;5068576;28;20036;-58
2022/12/10 13:05:38;;;;;;;57.28;21.00;;;;;;;;;;5029136;28;20071;-56
2022/12/10 13:08:18;;;;;;;58.72;20.98;;;;;;;;;;5076353;28;20052;-57
2022/12/10 13:10:45;;;;;;;60.78;22.35;;;;;;;;;;5070497;28;20902;-57
2022/12/10 13:13:23;;;;;;;56.42;19.48;;;;;;;;;;5069959;28;20036;-60
2022/12/10 13:15:48;;;;;;;58.47;21.05;;;;;;;;;;5043312;28;20086;-58
2022/12/10 13:18:15;;;;;;;60.67;20.60;;;;;;;;;;5083703;28;20032;-56
2022/12/10 13:20:53;;;;;;;74.38;23.70;;;;;;;;;;5072276;28;20326;-56
2022/12/10 13:23:24;;;;;;;62.28;22.35;;;;;;;;;;5072514;28;20035;-58
2022/12/10 13:25:50;;;;;;;63.80;22.67;;;;;;;;;;5054718;28;20090;-58
2022/12/10 13:28:25;;;;;;;66.57;23.48;;;;;;;;;;5083653;28;20040;-57
2022/12/10 13:31:16;;;;;;;60.38;20.48;;;;;;;;;;5071695;28;20042;-58
2022/12/10 13:33:51;;;;;;;;;;;;;;;;;;5073916;28;20036;-57
2022/12/10 13:36:45;;;;;;;43.03;17.40;;;;;;;;;;5071817;28;19920;-55
2022/12/10 13:39:25;;;;;;;57.92;22.33;;;;;;;;;;5058519;28;20052;-58
2022/12/10 13:45:21;;;;;;;62.75;23.20;;;;;;;;;;5064073;28;20330;-57
2022/12/10 13:47:48;;;;;;;63.72;22.42;;;;;;;;;;5051128;28;20351;-56
2022/12/10 13:50:29;;;;;;;60.30;22.27;;;;;;;;;;5044054;28;20064;-57
2022/12/10 13:53:24;;;;;;;58.72;23.23;;;;;;;;;;5059875;28;20522;-60
2022/12/10 13:56:06;;;;;;;69.55;23.27;;;;;;;;;;5069755;28;20049;-54
2022/12/10 13:58:50;;;;;;;65.57;23.42;;;;;;;;;;5076553;28;20430;-58
2022/12/10 14:01:35;;;;;;;59.08;22.83;;;;;;;;;;5072059;28;20036;-59
2022/12/10 14:04:25;;;;;;;66.53;23.65;;;;;;;;;;5019559;28;20079;-59
2022/12/10 14:06:52;;;;;;;65.60;22.73;;;;;;;;;;5042327;28;20028;-60
2022/12/10 14:09:21;;;;;;;66.07;22.98;;;;;;;;;;5055714;28;20029;-59
2022/12/10 14:11:53;;;;;;;63.28;24.13;;;;;;;;;;5074473;28;20468;-58
2022/12/10 14:14:29;;;;;;;65.45;24.02;;;;;;;;;;5088333;28;20051;-59
2022/12/10 14:16:54;;;;;;;64.90;23.92;;;;;;;;;;5071304;28;20032;-56
2022/12/10 14:19:20;;;;;;;62.15;23.85;;;;;;;;;;5080212;28;20456;-57
2022/12/10 14:21:46;;;;;;;60.28;23.27;;;;;;;;;;5069453;28;20154;-58
2022/12/10 14:24:47;;;;;;;62.20;24.05;;;;;;;;;;5054245;28;20420;-55
2022/12/10 14:27:15;;;;;;;63.17;23.98;;;;;;;;;;5025039;28;20453;-60
2022/12/10 14:29:49;;;;;;;58.17;21.88;;;;;;;;;;5066895;28;20024;-55
2022/12/10 14:32:18;;;;;;;67.75;23.85;;;;;;;;;;5072702;28;20469;-62
2022/12/10 14:34:50;;;;;;;68.90;23.63;;;;;;;;;;5039613;28;20423;-59
2022/12/10 14:37:17;;;;;;;62.95;23.45;;;;;;;;;;5075445;28;20116;-58
2022/12/10 14:39:42;;;;;;;65.25;24.27;;;;;;;;;;5070425;28;20035;-59
2022/12/10 14:42:14;;;;;;;64.50;23.60;;;;;;;;;;5071528;28;20119;-59
2022/12/10 14:44:40;;;;;;;61.80;23.38;;;;;;;;;;5056355;28;20040;-56
2022/12/10 14:47:19;;;;;;;68.32;25.23;;;;;;;;;;5090732;28;20032;-57
2022/12/10 14:49:48;;;;;;;63.63;23.92;;;;;;;;;;5081611;28;20029;-56
2022/12/10 14:52:26;;;;;;;63.38;23.50;;;;;;;;;;5056362;28;20086;-58